sensor_id;sensor_type;location;lat;lon;timestamp;P1;durP1;ratioP1;P2;durP2;ratioP2
7193;SDS011;3638;48.820;9.244;2024-02-26T00:00:06;2.70;;;2.50;;
7193;SDS011;3638;48.820;9.244;2024-02-26T00:02:35;2.77;;;2.57;;
7193;SDS011;3638;48.820;9.244;2024-02-26T00:05:03;2.97;;;2.77;;
7193;SDS011;3638;48.820;9.244;2024-02-26T00:07:31;2.63;;;2.43;;
7193;SDS011;3638;48.820;9.244;2024-02-26T00:09:58;3.10;;;2.90;;
7193;SDS011;3638;48.820;9.244;2024-02-26T00:12:26;3.20;;;2.90;;
7193;SDS011;3638;48.820;9.244;2024-02-26T00:14:53;3.07;;;2.77;;
7193;SDS011;3638;48.820;9.244;2024-02-26T00:17:24;3.27;;;2.60;;
7193;SDS011;3638;48.820;9.244;2024-02-26T00:19:51;3.47;;;3.17;;
7193;SDS011;3638;48.820;9.244;2024-02-26T00:22:18;3.13;;;2.80;;
7193;SDS011;3638;48.820;9.244;2024-02-26T00:24:47;3.13;;;2.90;;
7193;SDS011;3638;48.820;9.244;2024-02-26T00:27:14;2.80;;;2.60;;
7193;SDS011;3638;48.820;9.244;2024-02-26T00:29:41;2.93;;;2.63;;
7193;SDS011;3638;48.820;9.244;2024-02-26T00:32:08;2.93;;;2.67;;
7193;SDS011;3638;48.820;9.244;2024-02-26T00:34:37;3.30;;;2.93;;
7193;SDS011;3638;48.820;9.244;2024-02-26T00:37:04;3.00;;;2.80;;
7193;SDS011;3638;48.820;9.244;2024-02-26T00:39:31;2.60;;;2.33;;
7193;SDS011;3638;48.820;9.244;2024-02-26T00:41:59;3.10;;;2.90;;
7193;SDS011;3638;48.820;9.244;2024-02-26T00:44:26;3.23;;;2.93;;
7193;SDS011;3638;48.820;9.244;2024-02-26T00:46:53;3.07;;;2.80;;
7193;SDS011;3638;48.820;9.244;2024-02-26T00:49:20;2.63;;;2.43;;
7193;SDS011;3638;48.820;9.244;2024-02-26T00:51:49;2.97;;;2.60;;
7193;SDS011;3638;48.820;9.244;2024-02-26T00:54:16;2.90;;;2.60;;
7193;SDS011;3638;48.820;9.244;2024-02-26T00:56:44;3.20;;;2.90;;
7193;SDS011;3638;48.820;9.244;2024-02-26T00:59:11;4.07;;;2.70;;
7193;SDS011;3638;48.820;9.244;2024-02-26T01:01:38;3.20;;;2.90;;
7193;SDS011;3638;48.820;9.244;2024-02-26T01:04:06;2.93;;;2.63;;
7193;SDS011;3638;48.820;9.244;2024-02-26T01:06:33;3.10;;;2.80;;
7193;SDS011;3638;48.820;9.244;2024-02-26T01:09:01;3.17;;;2.87;;
7193;SDS011;3638;48.820;9.244;2024-02-26T01:11:29;3.17;;;2.47;;
7193;SDS011;3638;48.820;9.244;2024-02-26T01:13:56;2.90;;;2.70;;
7193;SDS011;3638;48.820;9.244;2024-02-26T01:16:23;2.80;;;2.60;;
7193;SDS011;3638;48.820;9.244;2024-02-26T01:18:50;3.10;;;2.80;;
7193;SDS011;3638;48.820;9.244;2024-02-26T01:21:18;3.50;;;2.73;;
7193;SDS011;3638;48.820;9.244;2024-02-26T01:23:45;3.63;;;2.60;;
7193;SDS011;3638;48.820;9.244;2024-02-26T01:26:13;3.20;;;2.83;;
7193;SDS011;3638;48.820;9.244;2024-02-26T01:28:40;2.97;;;2.77;;
7193;SDS011;3638;48.820;9.244;2024-02-26T01:31:09;2.90;;;2.70;;
7193;SDS011;3638;48.820;9.244;2024-02-26T01:33:36;3.13;;;2.87;;
7193;SDS011;3638;48.820;9.244;2024-02-26T01:36:03;3.10;;;2.53;;
7193;SDS011;3638;48.820;9.244;2024-02-26T01:38:31;3.10;;;2.90;;
7193;SDS011;3638;48.820;9.244;2024-02-26T01:40:58;2.70;;;2.50;;
7193;SDS011;3638;48.820;9.244;2024-02-26T01:43:27;3.03;;;2.83;;
7193;SDS011;3638;48.820;9.244;2024-02-26T01:45:54;3.37;;;2.73;;
7193;SDS011;3638;48.820;9.244;2024-02-26T01:48:22;2.77;;;2.57;;
7193;SDS011;3638;48.820;9.244;2024-02-26T01:50:50;3.10;;;2.83;;
7193;SDS011;3638;48.820;9.244;2024-02-26T01:53:18;2.87;;;2.67;;
7193;SDS011;3638;48.820;9.244;2024-02-26T01:55:45;3.30;;;3.00;;
7193;SDS011;3638;48.820;9.244;2024-02-26T01:58:13;2.80;;;2.60;;
7193;SDS011;3638;48.820;9.244;2024-02-26T02:00:42;2.80;;;2.60;;
7193;SDS011;3638;48.820;9.244;2024-02-26T02:03:09;3.53;;;2.90;;
7193;SDS011;3638;48.820;9.244;2024-02-26T02:05:36;3.30;;;3.00;;
7193;SDS011;3638;48.820;9.244;2024-02-26T02:08:06;3.13;;;2.83;;
7193;SDS011;3638;48.820;9.244;2024-02-26T02:10:34;3.50;;;3.20;;
7193;SDS011;3638;48.820;9.244;2024-02-26T02:13:01;4.10;;;3.47;;
7193;SDS011;3638;48.820;9.244;2024-02-26T02:15:28;4.00;;;3.43;;
7193;SDS011;3638;48.820;9.244;2024-02-26T02:17:57;3.40;;;3.10;;
7193;SDS011;3638;48.820;9.244;2024-02-26T02:20:26;4.20;;;3.20;;
7193;SDS011;3638;48.820;9.244;2024-02-26T02:22:57;3.40;;;3.10;;
7193;SDS011;3638;48.820;9.244;2024-02-26T02:25:24;3.43;;;3.13;;
7193;SDS011;3638;48.820;9.244;2024-02-26T02:27:51;2.70;;;2.50;;
7193;SDS011;3638;48.820;9.244;2024-02-26T02:30:20;2.93;;;2.63;;
7193;SDS011;3638;48.820;9.244;2024-02-26T02:32:47;3.50;;;3.00;;
7193;SDS011;3638;48.820;9.244;2024-02-26T02:35:15;3.13;;;2.73;;
7193;SDS011;3638;48.820;9.244;2024-02-26T02:37:43;3.50;;;3.20;;
7193;SDS011;3638;48.820;9.244;2024-02-26T02:40:10;3.83;;;2.83;;
7193;SDS011;3638;48.820;9.244;2024-02-26T02:42:38;3.57;;;2.90;;
7193;SDS011;3638;48.820;9.244;2024-02-26T02:45:05;3.00;;;2.80;;
7193;SDS011;3638;48.820;9.244;2024-02-26T02:47:35;3.00;;;2.70;;
7193;SDS011;3638;48.820;9.244;2024-02-26T02:50:03;2.93;;;2.70;;
7193;SDS011;3638;48.820;9.244;2024-02-26T02:52:31;2.77;;;2.57;;
7193;SDS011;3638;48.820;9.244;2024-02-26T02:54:59;3.20;;;2.50;;
7193;SDS011;3638;48.820;9.244;2024-02-26T02:57:28;2.93;;;2.73;;
7193;SDS011;3638;48.820;9.244;2024-02-26T02:59:55;3.40;;;3.10;;
7193;SDS011;3638;48.820;9.244;2024-02-26T03:02:23;3.33;;;3.03;;
7193;SDS011;3638;48.820;9.244;2024-02-26T03:04:50;3.37;;;3.07;;
7193;SDS011;3638;48.820;9.244;2024-02-26T03:07:18;3.77;;;2.63;;
7193;SDS011;3638;48.820;9.244;2024-02-26T03:09:44;3.43;;;3.00;;
7193;SDS011;3638;48.820;9.244;2024-02-26T03:12:12;3.43;;;2.77;;
7193;SDS011;3638;48.820;9.244;2024-02-26T03:14:40;3.53;;;3.17;;
7193;SDS011;3638;48.820;9.244;2024-02-26T03:17:07;2.93;;;2.60;;
7193;SDS011;3638;48.820;9.244;2024-02-26T03:19:34;4.53;;;3.43;;
7193;SDS011;3638;48.820;9.244;2024-02-26T03:22:01;5.37;;;3.10;;
7193;SDS011;3638;48.820;9.244;2024-02-26T03:24:28;4.03;;;3.03;;
7193;SDS011;3638;48.820;9.244;2024-02-26T03:26:56;3.57;;;3.27;;
7193;SDS011;3638;48.820;9.244;2024-02-26T03:29:24;3.60;;;3.30;;
7193;SDS011;3638;48.820;9.244;2024-02-26T03:31:52;3.20;;;3.00;;
7193;SDS011;3638;48.820;9.244;2024-02-26T03:34:19;3.10;;;2.87;;
7193;SDS011;3638;48.820;9.244;2024-02-26T03:36:46;3.10;;;2.80;;
7193;SDS011;3638;48.820;9.244;2024-02-26T03:39:13;3.10;;;2.90;;
7193;SDS011;3638;48.820;9.244;2024-02-26T03:41:41;3.40;;;3.10;;
7193;SDS011;3638;48.820;9.244;2024-02-26T03:44:08;3.33;;;2.90;;
7193;SDS011;3638;48.820;9.244;2024-02-26T03:46:37;3.17;;;2.90;;
7193;SDS011;3638;48.820;9.244;2024-02-26T03:49:04;3.63;;;2.80;;
7193;SDS011;3638;48.820;9.244;2024-02-26T03:51:31;4.27;;;2.97;;
7193;SDS011;3638;48.820;9.244;2024-02-26T03:53:58;3.23;;;2.80;;
7193;SDS011;3638;48.820;9.244;2024-02-26T03:56:26;2.90;;;2.70;;
7193;SDS011;3638;48.820;9.244;2024-02-26T03:58:53;2.63;;;2.43;;
7193;SDS011;3638;48.820;9.244;2024-02-26T04:01:20;3.10;;;2.80;;
7193;SDS011;3638;48.820;9.244;2024-02-26T04:03:49;3.07;;;2.77;;
7193;SDS011;3638;48.820;9.244;2024-02-26T04:06:17;4.03;;;3.10;;
7193;SDS011;3638;48.820;9.244;2024-02-26T04:08:46;3.30;;;2.90;;
7193;SDS011;3638;48.820;9.244;2024-02-26T04:11:13;3.70;;;2.90;;
7193;SDS011;3638;48.820;9.244;2024-02-26T04:13:43;2.97;;;2.70;;
7193;SDS011;3638;48.820;9.244;2024-02-26T04:16:10;2.80;;;2.60;;
7193;SDS011;3638;48.820;9.244;2024-02-26T04:18:38;3.93;;;3.10;;
7193;SDS011;3638;48.820;9.244;2024-02-26T04:21:06;3.20;;;3.00;;
7193;SDS011;3638;48.820;9.244;2024-02-26T04:23:33;2.90;;;2.70;;
7193;SDS011;3638;48.820;9.244;2024-02-26T04:26:01;3.40;;;3.10;;
7193;SDS011;3638;48.820;9.244;2024-02-26T04:28:29;3.07;;;2.80;;
7193;SDS011;3638;48.820;9.244;2024-02-26T04:30:56;3.33;;;3.03;;
7193;SDS011;3638;48.820;9.244;2024-02-26T04:33:23;2.90;;;2.70;;
7193;SDS011;3638;48.820;9.244;2024-02-26T04:35:50;2.80;;;2.60;;
7193;SDS011;3638;48.820;9.244;2024-02-26T04:38:19;5.47;;;2.50;;
7193;SDS011;3638;48.820;9.244;2024-02-26T04:40:47;2.90;;;2.60;;
7193;SDS011;3638;48.820;9.244;2024-02-26T04:43:14;2.73;;;2.53;;
7193;SDS011;3638;48.820;9.244;2024-02-26T04:45:43;3.00;;;2.70;;
7193;SDS011;3638;48.820;9.244;2024-02-26T04:48:10;3.00;;;2.70;;
7193;SDS011;3638;48.820;9.244;2024-02-26T04:50:37;3.00;;;2.70;;
7193;SDS011;3638;48.820;9.244;2024-02-26T04:53:04;2.60;;;2.40;;
7193;SDS011;3638;48.820;9.244;2024-02-26T04:55:33;2.70;;;2.50;;
7193;SDS011;3638;48.820;9.244;2024-02-26T04:58:00;2.73;;;2.53;;
7193;SDS011;3638;48.820;9.244;2024-02-26T05:00:27;2.80;;;2.60;;
7193;SDS011;3638;48.820;9.244;2024-02-26T05:02:54;2.40;;;2.20;;
7193;SDS011;3638;48.820;9.244;2024-02-26T05:05:21;2.83;;;2.60;;
7193;SDS011;3638;48.820;9.244;2024-02-26T05:07:49;3.20;;;3.00;;
7193;SDS011;3638;48.820;9.244;2024-02-26T05:10:16;3.40;;;3.10;;
7193;SDS011;3638;48.820;9.244;2024-02-26T05:12:45;4.77;;;3.40;;
7193;SDS011;3638;48.820;9.244;2024-02-26T05:15:13;3.53;;;3.23;;
7193;SDS011;3638;48.820;9.244;2024-02-26T05:17:43;3.77;;;3.20;;
7193;SDS011;3638;48.820;9.244;2024-02-26T05:20:11;3.63;;;3.00;;
7193;SDS011;3638;48.820;9.244;2024-02-26T05:22:38;4.47;;;3.03;;
7193;SDS011;3638;48.820;9.244;2024-02-26T05:25:05;3.27;;;2.93;;
7193;SDS011;3638;48.820;9.244;2024-02-26T05:27:32;3.30;;;3.00;;
7193;SDS011;3638;48.820;9.244;2024-02-26T05:30:01;3.53;;;3.23;;
7193;SDS011;3638;48.820;9.244;2024-02-26T05:32:29;3.80;;;3.10;;
7193;SDS011;3638;48.820;9.244;2024-02-26T05:34:56;3.77;;;3.37;;
7193;SDS011;3638;48.820;9.244;2024-02-26T05:37:23;3.30;;;3.00;;
7193;SDS011;3638;48.820;9.244;2024-02-26T05:39:51;3.87;;;3.30;;
7193;SDS011;3638;48.820;9.244;2024-02-26T05:42:19;3.47;;;3.17;;
7193;SDS011;3638;48.820;9.244;2024-02-26T05:44:46;4.40;;;3.03;;
7193;SDS011;3638;48.820;9.244;2024-02-26T05:47:14;3.77;;;3.40;;
7193;SDS011;3638;48.820;9.244;2024-02-26T05:49:42;3.77;;;3.47;;
7193;SDS011;3638;48.820;9.244;2024-02-26T05:52:09;3.40;;;3.10;;
7193;SDS011;3638;48.820;9.244;2024-02-26T05:54:36;3.67;;;3.37;;
7193;SDS011;3638;48.820;9.244;2024-02-26T05:57:04;3.50;;;3.20;;
7193;SDS011;3638;48.820;9.244;2024-02-26T05:59:31;3.80;;;3.37;;
7193;SDS011;3638;48.820;9.244;2024-02-26T06:01:58;4.23;;;3.13;;
7193;SDS011;3638;48.820;9.244;2024-02-26T06:04:27;4.93;;;3.43;;
7193;SDS011;3638;48.820;9.244;2024-02-26T06:06:54;3.37;;;3.17;;
7193;SDS011;3638;48.820;9.244;2024-02-26T06:09:22;3.70;;;3.20;;
7193;SDS011;3638;48.820;9.244;2024-02-26T06:11:49;3.87;;;3.33;;
7193;SDS011;3638;48.820;9.244;2024-02-26T06:14:17;4.53;;;3.60;;
7193;SDS011;3638;48.820;9.244;2024-02-26T06:16:45;5.40;;;3.77;;
7193;SDS011;3638;48.820;9.244;2024-02-26T06:19:13;4.10;;;3.70;;
7193;SDS011;3638;48.820;9.244;2024-02-26T06:21:41;4.47;;;3.30;;
7193;SDS011;3638;48.820;9.244;2024-02-26T06:24:09;3.73;;;3.33;;
7193;SDS011;3638;48.820;9.244;2024-02-26T06:26:36;3.67;;;3.10;;
7193;SDS011;3638;48.820;9.244;2024-02-26T06:29:03;4.50;;;3.63;;
7193;SDS011;3638;48.820;9.244;2024-02-26T06:31:30;3.30;;;3.10;;
7193;SDS011;3638;48.820;9.244;2024-02-26T06:33:57;4.23;;;3.40;;
7193;SDS011;3638;48.820;9.244;2024-02-26T06:36:25;4.07;;;3.43;;
7193;SDS011;3638;48.820;9.244;2024-02-26T06:38:53;5.20;;;3.80;;
7193;SDS011;3638;48.820;9.244;2024-02-26T06:41:20;4.50;;;3.40;;
7193;SDS011;3638;48.820;9.244;2024-02-26T06:43:52;3.67;;;3.33;;
7193;SDS011;3638;48.820;9.244;2024-02-26T06:46:19;5.13;;;3.83;;
7193;SDS011;3638;48.820;9.244;2024-02-26T06:48:47;5.13;;;3.83;;
7193;SDS011;3638;48.820;9.244;2024-02-26T06:51:14;4.20;;;3.80;;
7193;SDS011;3638;48.820;9.244;2024-02-26T06:53:42;4.37;;;3.53;;
7193;SDS011;3638;48.820;9.244;2024-02-26T06:56:10;4.67;;;3.33;;
7193;SDS011;3638;48.820;9.244;2024-02-26T06:58:37;3.50;;;3.23;;
7193;SDS011;3638;48.820;9.244;2024-02-26T07:01:04;4.20;;;3.33;;
7193;SDS011;3638;48.820;9.244;2024-02-26T07:03:33;4.07;;;3.27;;
7193;SDS011;3638;48.820;9.244;2024-02-26T07:06:00;4.90;;;3.53;;
7193;SDS011;3638;48.820;9.244;2024-02-26T07:08:28;5.93;;;4.00;;
7193;SDS011;3638;48.820;9.244;2024-02-26T07:10:55;10.37;;;5.53;;
7193;SDS011;3638;48.820;9.244;2024-02-26T07:13:23;6.70;;;5.30;;
7193;SDS011;3638;48.820;9.244;2024-02-26T07:15:50;8.47;;;5.47;;
7193;SDS011;3638;48.820;9.244;2024-02-26T07:18:18;7.23;;;5.40;;
7193;SDS011;3638;48.820;9.244;2024-02-26T07:20:45;7.43;;;5.77;;
7193;SDS011;3638;48.820;9.244;2024-02-26T07:23:12;6.50;;;5.33;;
7193;SDS011;3638;48.820;9.244;2024-02-26T07:25:39;6.60;;;5.20;;
7193;SDS011;3638;48.820;9.244;2024-02-26T07:28:07;6.00;;;4.43;;
7193;SDS011;3638;48.820;9.244;2024-02-26T07:30:35;6.37;;;4.60;;
7193;SDS011;3638;48.820;9.244;2024-02-26T07:33:03;4.87;;;4.33;;
7193;SDS011;3638;48.820;9.244;2024-02-26T07:35:30;5.37;;;4.03;;
7193;SDS011;3638;48.820;9.244;2024-02-26T07:37:58;6.47;;;4.17;;
7193;SDS011;3638;48.820;9.244;2024-02-26T07:40:25;4.07;;;3.63;;
7193;SDS011;3638;48.820;9.244;2024-02-26T07:42:53;5.30;;;3.67;;
7193;SDS011;3638;48.820;9.244;2024-02-26T07:45:20;5.37;;;3.67;;
7193;SDS011;3638;48.820;9.244;2024-02-26T07:47:49;4.07;;;3.67;;
7193;SDS011;3638;48.820;9.244;2024-02-26T07:50:16;4.83;;;3.53;;
7193;SDS011;3638;48.820;9.244;2024-02-26T07:52:44;4.00;;;3.60;;
7193;SDS011;3638;48.820;9.244;2024-02-26T07:55:12;6.27;;;3.60;;
7193;SDS011;3638;48.820;9.244;2024-02-26T07:57:41;7.30;;;4.00;;
7193;SDS011;3638;48.820;9.244;2024-02-26T08:00:09;6.13;;;4.53;;
7193;SDS011;3638;48.820;9.244;2024-02-26T08:02:40;5.93;;;5.17;;
7193;SDS011;3638;48.820;9.244;2024-02-26T08:05:10;5.63;;;4.40;;
7193;SDS011;3638;48.820;9.244;2024-02-26T08:07:37;7.30;;;4.17;;
7193;SDS011;3638;48.820;9.244;2024-02-26T08:10:04;4.47;;;3.70;;
7193;SDS011;3638;48.820;9.244;2024-02-26T08:12:32;8.97;;;4.27;;
7193;SDS011;3638;48.820;9.244;2024-02-26T08:15:00;3.87;;;3.20;;
7193;SDS011;3638;48.820;9.244;2024-02-26T08:17:28;4.27;;;3.73;;
7193;SDS011;3638;48.820;9.244;2024-02-26T08:19:57;6.80;;;3.73;;
7193;SDS011;3638;48.820;9.244;2024-02-26T08:22:26;4.57;;;3.47;;
7193;SDS011;3638;48.820;9.244;2024-02-26T08:24:53;3.40;;;3.10;;
7193;SDS011;3638;48.820;9.244;2024-02-26T08:27:21;3.40;;;3.10;;
7193;SDS011;3638;48.820;9.244;2024-02-26T08:29:48;3.73;;;3.30;;
7193;SDS011;3638;48.820;9.244;2024-02-26T08:32:15;4.60;;;3.90;;
7193;SDS011;3638;48.820;9.244;2024-02-26T08:34:43;4.77;;;3.80;;
7193;SDS011;3638;48.820;9.244;2024-02-26T08:37:10;4.13;;;3.73;;
7193;SDS011;3638;48.820;9.244;2024-02-26T08:39:38;4.10;;;3.47;;
7193;SDS011;3638;48.820;9.244;2024-02-26T08:42:06;3.57;;;3.00;;
7193;SDS011;3638;48.820;9.244;2024-02-26T08:44:33;4.50;;;2.90;;
7193;SDS011;3638;48.820;9.244;2024-02-26T08:47:00;3.43;;;3.13;;
7193;SDS011;3638;48.820;9.244;2024-02-26T08:49:28;3.60;;;3.30;;
7193;SDS011;3638;48.820;9.244;2024-02-26T08:51:56;4.37;;;3.20;;
7193;SDS011;3638;48.820;9.244;2024-02-26T08:54:23;3.67;;;3.30;;
7193;SDS011;3638;48.820;9.244;2024-02-26T08:56:52;4.13;;;3.30;;
7193;SDS011;3638;48.820;9.244;2024-02-26T08:59:19;3.43;;;3.13;;
7193;SDS011;3638;48.820;9.244;2024-02-26T09:01:48;3.73;;;3.33;;
7193;SDS011;3638;48.820;9.244;2024-02-26T09:04:16;4.00;;;3.20;;
7193;SDS011;3638;48.820;9.244;2024-02-26T09:06:43;3.67;;;3.07;;
7193;SDS011;3638;48.820;9.244;2024-02-26T09:09:10;3.70;;;3.10;;
7193;SDS011;3638;48.820;9.244;2024-02-26T09:11:38;3.07;;;2.83;;
7193;SDS011;3638;48.820;9.244;2024-02-26T09:14:06;3.17;;;2.90;;
7193;SDS011;3638;48.820;9.244;2024-02-26T09:16:34;5.10;;;3.00;;
7193;SDS011;3638;48.820;9.244;2024-02-26T09:19:02;4.23;;;3.30;;
7193;SDS011;3638;48.820;9.244;2024-02-26T09:21:29;5.30;;;3.63;;
7193;SDS011;3638;48.820;9.244;2024-02-26T09:23:57;4.03;;;2.93;;
7193;SDS011;3638;48.820;9.244;2024-02-26T09:26:24;3.07;;;2.87;;
7193;SDS011;3638;48.820;9.244;2024-02-26T09:28:51;4.63;;;3.00;;
7193;SDS011;3638;48.820;9.244;2024-02-26T09:31:20;3.37;;;3.00;;
7193;SDS011;3638;48.820;9.244;2024-02-26T09:33:47;3.73;;;3.20;;
7193;SDS011;3638;48.820;9.244;2024-02-26T09:36:14;3.53;;;3.23;;
7193;SDS011;3638;48.820;9.244;2024-02-26T09:38:42;3.67;;;3.37;;
7193;SDS011;3638;48.820;9.244;2024-02-26T09:41:10;3.50;;;3.20;;
7193;SDS011;3638;48.820;9.244;2024-02-26T09:43:41;4.37;;;3.57;;
7193;SDS011;3638;48.820;9.244;2024-02-26T09:46:11;3.83;;;3.20;;
7193;SDS011;3638;48.820;9.244;2024-02-26T09:48:41;3.87;;;3.50;;
7193;SDS011;3638;48.820;9.244;2024-02-26T09:51:09;3.73;;;3.23;;
7193;SDS011;3638;48.820;9.244;2024-02-26T09:53:38;6.27;;;3.47;;
7193;SDS011;3638;48.820;9.244;2024-02-26T09:56:08;3.63;;;3.13;;
7193;SDS011;3638;48.820;9.244;2024-02-26T09:58:35;3.43;;;3.13;;
7193;SDS011;3638;48.820;9.244;2024-02-26T10:01:03;3.23;;;2.93;;
7193;SDS011;3638;48.820;9.244;2024-02-26T10:03:34;3.67;;;3.10;;
7193;SDS011;3638;48.820;9.244;2024-02-26T10:06:08;3.50;;;3.20;;
7193;SDS011;3638;48.820;9.244;2024-02-26T10:08:35;3.60;;;3.00;;
7193;SDS011;3638;48.820;9.244;2024-02-26T10:11:03;3.73;;;3.13;;
7193;SDS011;3638;48.820;9.244;2024-02-26T10:13:31;3.53;;;3.07;;
7193;SDS011;3638;48.820;9.244;2024-02-26T10:15:58;2.87;;;2.67;;
7193;SDS011;3638;48.820;9.244;2024-02-26T10:18:29;7.70;;;2.80;;
7193;SDS011;3638;48.820;9.244;2024-02-26T10:21:13;3.87;;;3.00;;
7193;SDS011;3638;48.820;9.244;2024-02-26T10:23:42;2.63;;;2.43;;
7193;SDS011;3638;48.820;9.244;2024-02-26T10:26:10;3.23;;;2.70;;
7193;SDS011;3638;48.820;9.244;2024-02-26T10:28:39;2.97;;;2.73;;
7193;SDS011;3638;48.820;9.244;2024-02-26T10:31:07;2.97;;;2.47;;
7193;SDS011;3638;48.820;9.244;2024-02-26T10:33:35;3.40;;;2.63;;
7193;SDS011;3638;48.820;9.244;2024-02-26T10:36:04;2.50;;;2.30;;
7193;SDS011;3638;48.820;9.244;2024-02-26T10:38:34;3.37;;;2.43;;
7193;SDS011;3638;48.820;9.244;2024-02-26T10:41:02;3.10;;;2.80;;
7193;SDS011;3638;48.820;9.244;2024-02-26T10:43:29;3.77;;;2.90;;
7193;SDS011;3638;48.820;9.244;2024-02-26T10:45:57;3.50;;;2.50;;
7193;SDS011;3638;48.820;9.244;2024-02-26T10:48:24;2.70;;;2.50;;
7193;SDS011;3638;48.820;9.244;2024-02-26T10:50:51;3.17;;;2.50;;
7193;SDS011;3638;48.820;9.244;2024-02-26T10:53:21;3.27;;;2.17;;
7193;SDS011;3638;48.820;9.244;2024-02-26T10:55:54;2.93;;;2.50;;
7193;SDS011;3638;48.820;9.244;2024-02-26T10:58:25;3.13;;;2.45;;
7193;SDS011;3638;48.820;9.244;2024-02-26T11:00:53;3.57;;;2.40;;
7193;SDS011;3638;48.820;9.244;2024-02-26T11:03:21;2.33;;;2.20;;
7193;SDS011;3638;48.820;9.244;2024-02-26T11:05:50;3.93;;;3.00;;
7193;SDS011;3638;48.820;9.244;2024-02-26T11:08:19;3.13;;;2.83;;
7193;SDS011;3638;48.820;9.244;2024-02-26T11:10:47;2.70;;;2.50;;
7193;SDS011;3638;48.820;9.244;2024-02-26T11:13:17;3.67;;;3.30;;
7193;SDS011;3638;48.820;9.244;2024-02-26T11:15:46;2.50;;;2.30;;
7193;SDS011;3638;48.820;9.244;2024-02-26T11:18:14;2.27;;;2.10;;
7193;SDS011;3638;48.820;9.244;2024-02-26T11:20:42;6.70;;;2.93;;
7193;SDS011;3638;48.820;9.244;2024-02-26T11:23:09;2.93;;;2.30;;
7193;SDS011;3638;48.820;9.244;2024-02-26T11:25:37;2.43;;;2.23;;
7193;SDS011;3638;48.820;9.244;2024-02-26T11:28:06;1.90;;;1.80;;
7193;SDS011;3638;48.820;9.244;2024-02-26T11:30:37;2.43;;;2.00;;
7193;SDS011;3638;48.820;9.244;2024-02-26T11:33:06;2.43;;;2.20;;
7193;SDS011;3638;48.820;9.244;2024-02-26T11:35:36;2.10;;;1.90;;
7193;SDS011;3638;48.820;9.244;2024-02-26T11:38:04;2.37;;;2.17;;
7193;SDS011;3638;48.820;9.244;2024-02-26T11:40:32;2.20;;;2.00;;
7193;SDS011;3638;48.820;9.244;2024-02-26T11:43:04;1.97;;;1.87;;
7193;SDS011;3638;48.820;9.244;2024-02-26T11:45:51;2.83;;;1.90;;
7193;SDS011;3638;48.820;9.244;2024-02-26T11:48:22;1.90;;;1.80;;
7193;SDS011;3638;48.820;9.244;2024-02-26T11:50:51;2.47;;;1.73;;
7193;SDS011;3638;48.820;9.244;2024-02-26T11:53:19;1.90;;;1.80;;
7193;SDS011;3638;48.820;9.244;2024-02-26T11:55:47;2.20;;;1.93;;
7193;SDS011;3638;48.820;9.244;2024-02-26T11:58:15;2.07;;;1.70;;
7193;SDS011;3638;48.820;9.244;2024-02-26T12:00:42;1.80;;;1.70;;
7193;SDS011;3638;48.820;9.244;2024-02-26T12:03:11;1.70;;;1.60;;
7193;SDS011;3638;48.820;9.244;2024-02-26T12:05:38;1.83;;;1.67;;
7193;SDS011;3638;48.820;9.244;2024-02-26T12:08:06;2.47;;;1.60;;
7193;SDS011;3638;48.820;9.244;2024-02-26T12:10:35;2.77;;;1.57;;
7193;SDS011;3638;48.820;9.244;2024-02-26T12:13:05;1.33;;;1.27;;
7193;SDS011;3638;48.820;9.244;2024-02-26T12:15:37;1.70;;;1.60;;
7193;SDS011;3638;48.820;9.244;2024-02-26T12:18:06;1.50;;;1.40;;
7193;SDS011;3638;48.820;9.244;2024-02-26T12:20:36;1.77;;;1.60;;
7193;SDS011;3638;48.820;9.244;2024-02-26T12:23:04;1.63;;;1.52;;
7193;SDS011;3638;48.820;9.244;2024-02-26T12:25:31;1.85;;;1.60;;
7193;SDS011;3638;48.820;9.244;2024-02-26T12:27:59;2.07;;;1.57;;
7193;SDS011;3638;48.820;9.244;2024-02-26T12:30:26;2.30;;;1.80;;
7193;SDS011;3638;48.820;9.244;2024-02-26T12:32:55;8.37;;;1.70;;
7193;SDS011;3638;48.820;9.244;2024-02-26T12:35:25;1.83;;;1.70;;
7193;SDS011;3638;48.820;9.244;2024-02-26T12:37:55;1.75;;;1.65;;
7193;SDS011;3638;48.820;9.244;2024-02-26T12:40:22;1.73;;;1.63;;
7193;SDS011;3638;48.820;9.244;2024-02-26T12:42:49;3.05;;;1.50;;
7193;SDS011;3638;48.820;9.244;2024-02-26T12:45:18;4.82;;;1.70;;
7193;SDS011;3638;48.820;9.244;2024-02-26T12:47:45;2.30;;;1.58;;
7193;SDS011;3638;48.820;9.244;2024-02-26T12:50:14;4.07;;;1.70;;
7193;SDS011;3638;48.820;9.244;2024-02-26T12:52:42;1.60;;;1.50;;
7193;SDS011;3638;48.820;9.244;2024-02-26T12:55:14;1.63;;;1.52;;
7193;SDS011;3638;48.820;9.244;2024-02-26T12:57:42;1.60;;;1.50;;
7193;SDS011;3638;48.820;9.244;2024-02-26T13:00:11;1.83;;;1.73;;
7193;SDS011;3638;48.820;9.244;2024-02-26T13:02:40;3.72;;;1.50;;
7193;SDS011;3638;48.820;9.244;2024-02-26T13:05:09;1.70;;;1.60;;
7193;SDS011;3638;48.820;9.244;2024-02-26T13:07:40;2.47;;;1.70;;
7193;SDS011;3638;48.820;9.244;2024-02-26T13:10:08;1.98;;;1.80;;
7193;SDS011;3638;48.820;9.244;2024-02-26T13:12:38;2.35;;;1.60;;
7193;SDS011;3638;48.820;9.244;2024-02-26T13:15:13;2.27;;;1.70;;
7193;SDS011;3638;48.820;9.244;2024-02-26T13:17:41;3.00;;;1.80;;
7193;SDS011;3638;48.820;9.244;2024-02-26T13:20:09;3.55;;;1.73;;
7193;SDS011;3638;48.820;9.244;2024-02-26T13:22:36;2.25;;;1.83;;
7193;SDS011;3638;48.820;9.244;2024-02-26T13:25:04;3.38;;;2.03;;
7193;SDS011;3638;48.820;9.244;2024-02-26T13:27:32;1.77;;;1.67;;
7193;SDS011;3638;48.820;9.244;2024-02-26T13:30:05;3.10;;;2.10;;
7193;SDS011;3638;48.820;9.244;2024-02-26T13:32:35;2.67;;;1.97;;
7193;SDS011;3638;48.820;9.244;2024-02-26T13:35:05;2.13;;;1.93;;
7193;SDS011;3638;48.820;9.244;2024-02-26T13:37:33;1.87;;;1.70;;
7193;SDS011;3638;48.820;9.244;2024-02-26T13:40:04;2.00;;;1.80;;
7193;SDS011;3638;48.820;9.244;2024-02-26T13:42:33;2.87;;;2.10;;
7193;SDS011;3638;48.820;9.244;2024-02-26T13:45:01;2.20;;;2.00;;
7193;SDS011;3638;48.820;9.244;2024-02-26T13:47:29;2.83;;;1.70;;
7193;SDS011;3638;48.820;9.244;2024-02-26T13:49:57;1.93;;;1.77;;
7193;SDS011;3638;48.820;9.244;2024-02-26T13:52:24;2.10;;;1.70;;
7193;SDS011;3638;48.820;9.244;2024-02-26T13:54:51;4.55;;;1.90;;
7193;SDS011;3638;48.820;9.244;2024-02-26T13:57:19;1.60;;;1.50;;
7193;SDS011;3638;48.820;9.244;2024-02-26T13:59:46;3.35;;;1.85;;
7193;SDS011;3638;48.820;9.244;2024-02-26T14:02:15;2.53;;;1.63;;
7193;SDS011;3638;48.820;9.244;2024-02-26T14:04:43;1.50;;;1.40;;
7193;SDS011;3638;48.820;9.244;2024-02-26T14:07:11;1.90;;;1.80;;
7193;SDS011;3638;48.820;9.244;2024-02-26T14:09:39;1.60;;;1.50;;
7193;SDS011;3638;48.820;9.244;2024-02-26T14:12:06;1.60;;;1.50;;
7193;SDS011;3638;48.820;9.244;2024-02-26T14:14:33;2.55;;;1.60;;
7193;SDS011;3638;48.820;9.244;2024-02-26T14:17:03;1.60;;;1.50;;
7193;SDS011;3638;48.820;9.244;2024-02-26T14:19:30;1.58;;;1.48;;
7193;SDS011;3638;48.820;9.244;2024-02-26T14:21:59;3.33;;;1.50;;
7193;SDS011;3638;48.820;9.244;2024-02-26T14:24:26;2.88;;;1.20;;
7193;SDS011;3638;48.820;9.244;2024-02-26T14:26:54;1.55;;;1.42;;
7193;SDS011;3638;48.820;9.244;2024-02-26T14:29:21;1.77;;;1.50;;
7193;SDS011;3638;48.820;9.244;2024-02-26T14:31:48;1.70;;;1.60;;
7193;SDS011;3638;48.820;9.244;2024-02-26T14:34:16;1.63;;;1.52;;
7193;SDS011;3638;48.820;9.244;2024-02-26T14:36:45;1.43;;;1.33;;
7193;SDS011;3638;48.820;9.244;2024-02-26T14:39:13;1.35;;;1.25;;
7193;SDS011;3638;48.820;9.244;2024-02-26T14:41:41;1.63;;;1.30;;
7193;SDS011;3638;48.820;9.244;2024-02-26T14:44:08;1.20;;;1.13;;
7193;SDS011;3638;48.820;9.244;2024-02-26T14:46:35;1.55;;;1.45;;
7193;SDS011;3638;48.820;9.244;2024-02-26T14:49:03;1.30;;;1.30;;
7193;SDS011;3638;48.820;9.244;2024-02-26T14:51:32;1.50;;;1.40;;
7193;SDS011;3638;48.820;9.244;2024-02-26T14:54:00;1.40;;;1.30;;
7193;SDS011;3638;48.820;9.244;2024-02-26T14:56:28;1.40;;;1.30;;
7193;SDS011;3638;48.820;9.244;2024-02-26T14:58:56;1.30;;;1.30;;
7193;SDS011;3638;48.820;9.244;2024-02-26T15:01:23;2.03;;;1.70;;
7193;SDS011;3638;48.820;9.244;2024-02-26T15:03:50;1.20;;;1.20;;
7193;SDS011;3638;48.820;9.244;2024-02-26T15:06:17;1.50;;;1.40;;
7193;SDS011;3638;48.820;9.244;2024-02-26T15:08:45;1.40;;;1.30;;
7193;SDS011;3638;48.820;9.244;2024-02-26T15:11:13;1.50;;;1.40;;
7193;SDS011;3638;48.820;9.244;2024-02-26T15:13:41;3.30;;;1.80;;
7193;SDS011;3638;48.820;9.244;2024-02-26T15:16:09;1.60;;;1.50;;
7193;SDS011;3638;48.820;9.244;2024-02-26T15:18:42;1.63;;;1.40;;